createdAt,value
2022-11-30T00:03:22.716Z,30.08
2022-11-30T00:08:24.386Z,27.63
2022-11-30T00:13:26.151Z,28.55
2022-11-30T00:18:27.783Z,26.83
2022-11-30T00:23:37.068Z,26.70
2022-11-30T00:28:39.573Z,25.75
2022-11-30T00:33:41.779Z,27.63
2022-11-30T00:38:43.932Z,27.67
2022-11-30T00:43:46.049Z,28.73
2022-11-30T00:48:47.659Z,31.20
2022-11-30T00:53:49.277Z,30.90
2022-11-30T00:58:51.264Z,32.13
2022-11-30T01:03:53.036Z,36.78
2022-11-30T01:08:54.715Z,36.80
2022-11-30T01:13:58.087Z,34.80
2022-11-30T01:19:00.420Z,38.78
2022-11-30T01:24:02.165Z,39.20
2022-11-30T01:29:03.707Z,40.03
2022-11-30T01:34:05.296Z,38.30
2022-11-30T01:39:09.026Z,36.22
2022-11-30T01:44:19.756Z,40.97
2022-11-30T01:49:41.779Z,40.17
2022-11-30T01:54:46.575Z,39.83
2022-11-30T01:59:52.010Z,40.13
2022-11-30T02:04:53.887Z,43.35
2022-11-30T02:09:55.431Z,44.20
2022-11-30T02:15:02.911Z,41.50
2022-11-30T02:20:22.581Z,40.90
2022-11-30T02:26:15.457Z,41.80
2022-11-30T02:31:23.475Z,37.00
2022-11-30T02:36:27.291Z,45.67
2022-11-30T02:41:38.062Z,41.65
2022-11-30T02:46:53.751Z,45.80
2022-11-30T02:51:56.331Z,40.47
2022-11-30T02:56:57.900Z,41.65
2022-11-30T03:01:59.443Z,46.42
2022-11-30T03:07:01.060Z,40.28
2022-11-30T03:12:02.590Z,38.80
2022-11-30T03:17:04.162Z,37.38
2022-11-30T03:22:05.683Z,35.25
2022-11-30T03:27:07.290Z,37.30
2022-11-30T03:32:08.832Z,36.17
2022-11-30T03:37:10.358Z,36.33
2022-11-30T03:42:11.869Z,34.53
2022-11-30T03:47:13.390Z,33.88
2022-11-30T03:52:14.886Z,37.63
2022-11-30T03:57:16.400Z,34.00
2022-11-30T04:02:18.082Z,34.20
2022-11-30T04:07:19.783Z,37.80
2022-11-30T04:12:21.390Z,38.20
2022-11-30T04:17:22.893Z,36.63
2022-11-30T04:22:24.403Z,34.17
2022-11-30T04:27:28.325Z,37.03
2022-11-30T04:32:29.932Z,37.22
2022-11-30T04:37:31.439Z,36.40
2022-11-30T04:42:32.969Z,40.42
2022-11-30T04:47:34.547Z,37.58
2022-11-30T04:52:39.003Z,40.45
2022-11-30T04:57:40.523Z,40.20
2022-11-30T05:02:44.489Z,47.50
2022-11-30T05:07:57.093Z,44.45
2022-11-30T05:12:58.857Z,48.25
2022-11-30T05:18:01.496Z,45.53
2022-11-30T05:23:05.131Z,46.10
2022-11-30T05:28:40.147Z,46.38
2022-11-30T05:33:41.904Z,43.00
2022-11-30T05:38:44.496Z,42.50
2022-11-30T05:43:45.985Z,44.33
2022-11-30T05:48:47.483Z,45.88
2022-11-30T05:53:49.009Z,47.25
2022-11-30T05:58:50.555Z,45.85
2022-11-30T06:03:52.451Z,44.50
2022-11-30T06:08:54.164Z,42.30
2022-11-30T06:13:55.644Z,41.97
2022-11-30T06:18:57.178Z,41.03
2022-11-30T06:23:58.721Z,47.65
2022-11-30T06:29:00.281Z,46.63
2022-11-30T06:34:01.804Z,46.75
2022-11-30T06:39:03.912Z,47.13
2022-11-30T06:44:09.649Z,49.58
2022-11-30T06:49:11.160Z,49.25
2022-11-30T06:54:12.680Z,49.17
2022-11-30T06:59:15.321Z,46.00
2022-11-30T07:04:17.150Z,46.08
2022-11-30T07:09:18.693Z,43.35
2022-11-30T07:14:20.260Z,41.88
2022-11-30T07:19:21.969Z,41.45
2022-11-30T07:24:23.511Z,36.80
2022-11-30T07:29:25.034Z,36.17
2022-11-30T07:34:26.622Z,31.73
2022-11-30T07:39:28.200Z,32.72
2022-11-30T07:44:29.819Z,30.75
2022-11-30T07:49:31.331Z,31.55
2022-11-30T07:54:32.852Z,28.40
2022-11-30T07:59:34.417Z,27.30
2022-11-30T08:04:36.022Z,26.48
2022-11-30T08:09:37.562Z,29.08
2022-11-30T08:15:03.638Z,28.27
2022-11-30T08:20:00.672Z,25.48
2022-11-30T08:25:02.216Z,24.42
2022-11-30T08:30:04.436Z,22.48
2022-11-30T08:35:06.289Z,24.38
2022-11-30T08:40:08.174Z,24.00
2022-11-30T08:45:10.139Z,20.40
2022-11-30T08:50:11.784Z,21.52
2022-11-30T08:55:13.368Z,20.92
2022-11-30T09:00:15.447Z,21.13
2022-11-30T09:05:17.097Z,19.05
2022-11-30T09:10:19.270Z,18.15
2022-11-30T09:15:20.795Z,20.88
2022-11-30T09:20:22.384Z,19.13
2022-11-30T09:25:23.931Z,19.25
2022-11-30T09:30:25.572Z,19.15
2022-11-30T09:35:27.225Z,18.83
2022-11-30T09:40:34.043Z,20.05
2022-11-30T09:45:37.435Z,19.48
2022-11-30T09:50:42.906Z,19.13
2022-11-30T09:55:44.751Z,18.95
2022-11-30T10:00:46.398Z,20.67
2022-11-30T10:05:51.720Z,19.92
2022-11-30T10:11:12.262Z,22.77
2022-11-30T10:16:23.243Z,21.55
2022-11-30T10:21:35.580Z,18.60
2022-11-30T10:26:37.439Z,21.42
2022-11-30T10:31:41.612Z,23.23
2022-11-30T10:36:48.307Z,24.95
2022-11-30T10:41:56.661Z,24.92
2022-11-30T10:47:01.185Z,24.23
2022-11-30T10:52:07.416Z,24.33
2022-11-30T10:57:09.653Z,18.70
2022-11-30T11:02:45.248Z,32.40
2022-11-30T11:07:51.795Z,34.15
2022-11-30T11:12:55.024Z,26.65
2022-11-30T11:18:12.009Z,29.95
2022-11-30T11:28:29.497Z,26.73
2022-11-30T11:33:31.061Z,30.08
2022-11-30T11:38:47.085Z,30.23
2022-11-30T11:44:10.326Z,30.15
2022-11-30T11:49:25.758Z,26.58
2022-11-30T11:54:53.294Z,26.45
2022-11-30T12:00:16.800Z,29.08
2022-11-30T12:05:26.815Z,30.38
2022-11-30T12:16:07.256Z,30.00
2022-11-30T12:21:57.053Z,30.60
2022-11-30T12:27:12.333Z,29.08
2022-11-30T12:32:27.475Z,31.25
2022-11-30T12:37:47.637Z,32.40
2022-11-30T12:42:59.114Z,29.48
2022-11-30T12:48:06.631Z,30.55
2022-11-30T12:53:47.308Z,31.90
2022-11-30T12:59:26.140Z,29.65
2022-11-30T13:04:30.289Z,29.95
2022-11-30T13:09:37.509Z,31.35
2022-11-30T13:14:39.449Z,31.73
2022-11-30T13:20:03.804Z,30.83
2022-11-30T13:25:17.262Z,30.65
2022-11-30T13:30:22.474Z,30.05
2022-11-30T13:35:30.062Z,30.70
2022-11-30T13:40:32.133Z,30.08
2022-11-30T13:45:35.226Z,32.40
2022-11-30T13:50:39.324Z,31.17
2022-11-30T13:56:00.956Z,33.30
2022-11-30T14:01:26.161Z,31.25
2022-11-30T14:06:39.602Z,30.00
2022-11-30T14:11:43.093Z,29.48
2022-11-30T14:16:46.529Z,30.05
2022-11-30T14:21:48.185Z,29.15
2022-11-30T14:26:51.555Z,26.65
2022-11-30T14:32:16.739Z,28.05
2022-11-30T14:37:26.909Z,28.40
2022-11-30T14:42:30.426Z,28.23
2022-11-30T14:47:34.124Z,29.65
2022-11-30T14:52:47.651Z,27.52
2022-11-30T14:57:56.186Z,28.60
2022-11-30T15:02:57.719Z,29.92
2022-11-30T15:07:59.956Z,27.85
2022-11-30T15:13:02.579Z,30.45
2022-11-30T15:18:19.512Z,30.42
2022-11-30T15:23:21.544Z,36.50
2022-11-30T15:28:44.181Z,37.88
2022-11-30T15:33:50.089Z,39.50
2022-11-30T15:38:51.848Z,41.80
2022-11-30T15:43:56.708Z,32.70
2022-11-30T15:49:18.453Z,32.63
2022-11-30T15:54:50.206Z,32.55
2022-11-30T16:00:13.669Z,32.85
2022-11-30T16:05:15.116Z,32.67
2022-11-30T16:10:21.761Z,33.65
2022-11-30T16:15:26.520Z,39.22
2022-11-30T16:20:28.061Z,36.13
2022-11-30T16:25:29.746Z,34.60
2022-11-30T16:30:31.334Z,36.17
2022-11-30T16:35:40.843Z,37.65
2022-11-30T16:40:42.335Z,32.95
2022-11-30T16:45:43.964Z,40.17
2022-11-30T16:50:45.687Z,34.30
2022-11-30T16:55:47.945Z,35.33
2022-11-30T17:00:49.597Z,38.80
2022-11-30T17:05:51.327Z,34.55
2022-11-30T17:10:54.002Z,37.55
2022-11-30T17:15:55.560Z,32.55
2022-11-30T17:20:57.135Z,33.65
2022-11-30T17:25:58.664Z,46.45
2022-11-30T17:31:00.264Z,40.85
2022-11-30T17:36:04.127Z,64.55
2022-11-30T17:41:07.483Z,42.13
2022-11-30T17:46:11.361Z,43.13
2022-11-30T17:51:13.011Z,98.60
2022-11-30T17:56:16.440Z,42.70
2022-11-30T18:01:23.648Z,38.67
2022-11-30T18:06:25.351Z,34.83
2022-11-30T18:11:26.850Z,36.63
2022-11-30T18:16:31.340Z,26.77
2022-11-30T18:21:33.089Z,27.80
2022-11-30T18:26:34.668Z,35.80
2022-11-30T18:31:36.222Z,29.63
2022-11-30T18:36:37.723Z,27.90
2022-11-30T18:41:39.266Z,27.15
2022-11-30T18:46:40.926Z,24.10
2022-11-30T18:51:42.539Z,21.42
2022-11-30T18:56:44.145Z,20.83
2022-11-30T19:01:45.880Z,21.63
2022-11-30T19:06:47.617Z,21.40
2022-11-30T19:11:49.437Z,21.70
2022-11-30T19:16:51.341Z,19.60
2022-11-30T19:21:52.977Z,18.77
2022-11-30T19:26:54.524Z,17.88
2022-11-30T19:31:56.114Z,18.98
2022-11-30T19:36:57.714Z,18.88
2022-11-30T19:41:59.424Z,17.95
2022-11-30T19:47:03.029Z,18.08
2022-11-30T19:52:04.801Z,14.77
2022-11-30T19:57:06.447Z,16.88
2022-11-30T20:02:09.899Z,14.32
2022-11-30T20:07:11.694Z,13.48
2022-11-30T20:12:13.430Z,15.07
2022-11-30T20:17:15.606Z,16.20
2022-11-30T20:22:19.778Z,13.23
2022-11-30T20:27:21.331Z,12.32
2022-11-30T20:32:24.235Z,13.60
2022-11-30T20:37:25.761Z,11.90
2022-11-30T20:42:27.323Z,13.07
2022-11-30T20:47:33.394Z,11.95
2022-11-30T20:52:36.510Z,12.35
2022-11-30T20:57:37.998Z,11.45
2022-11-30T21:02:39.582Z,13.38
2022-11-30T21:07:41.372Z,11.13
2022-11-30T21:12:43.001Z,14.57
2022-11-30T21:17:44.540Z,12.43
2022-11-30T21:22:46.092Z,12.35
2022-11-30T21:27:51.897Z,11.10
2022-11-30T21:32:53.447Z,12.07
2022-11-30T21:37:55.020Z,11.18
2022-11-30T21:42:56.603Z,13.15
2022-11-30T21:47:58.490Z,11.13
2022-11-30T21:52:59.963Z,11.15
2022-11-30T21:58:01.477Z,11.23
2022-11-30T22:03:03.337Z,9.93
2022-11-30T22:08:05.096Z,10.75
2022-11-30T22:13:06.679Z,11.38
2022-11-30T22:18:08.196Z,9.75
2022-11-30T22:23:09.732Z,10.40
2022-11-30T22:28:11.346Z,10.45
2022-11-30T22:33:12.880Z,9.45
2022-11-30T22:38:14.517Z,9.55
2022-11-30T22:43:16.082Z,9.13
2022-11-30T22:48:17.569Z,8.90
2022-11-30T22:53:19.078Z,8.30
2022-11-30T22:58:20.574Z,8.63
2022-11-30T23:03:26.806Z,9.43
2022-11-30T23:08:29.562Z,8.10
2022-11-30T23:13:31.204Z,8.93
2022-11-30T23:18:38.857Z,9.65
2022-11-30T23:23:42.080Z,8.52
2022-11-30T23:28:45.415Z,9.32
2022-11-30T23:33:47.299Z,9.90
2022-11-30T23:38:55.472Z,9.77
2022-11-30T23:43:57.237Z,9.52
2022-11-30T23:48:58.963Z,9.23
2022-11-30T23:54:00.531Z,9.45
2022-11-30T23:59:02.124Z,9.13
